Time;durP1;ratioP1;P1;durP2;ratioP2;P2;SDS_P1;SDS_P2;PMS_P1;PMS_P2;Temp;Humidity;BMP_temperature;BMP_pressure;BME280_temperature;BME280_humidity;BME280_pressure;Samples;Min_cycle;Max_cycle;Signal;HPM_P1;HPM_P2
2022/02/27 00:00:09;;;;;;;3.97;3.30;;;2.60;99.90;;;;;;5058388;28;20188;-71
2022/02/27 00:02:35;;;;;;;9.30;3.70;;;2.40;99.90;;;;;;5040007;28;20204;-72
2022/02/27 00:05:01;;;;;;;7.63;3.80;;;2.20;99.90;;;;;;5058169;28;20677;-72
2022/02/27 00:07:26;;;;;;;4.13;2.93;;;2.10;99.90;;;;;;5051983;28;20218;-73
2022/02/27 00:09:52;;;;;;;4.57;3.40;;;1.60;99.90;;;;;;5034761;28;20293;-70
2022/02/27 00:12:18;;;;;;;8.70;4.13;;;2.30;99.90;;;;;;5031268;28;20686;-70
2022/02/27 00:14:43;;;;;;;5.33;3.20;;;2.40;99.90;;;;;;5045080;28;20185;-70
2022/02/27 00:17:09;;;;;;;4.47;3.70;;;1.60;99.90;;;;;;5033043;28;20170;-70
2022/02/27 00:19:35;;;;;;;8.87;2.50;;;1.80;99.90;;;;;;5047635;28;20178;-69
2022/02/27 00:22:00;;;;;;;5.43;3.85;;;1.60;99.90;;;;;;5034426;28;20569;-70
2022/02/27 00:24:26;;;;;;;6.00;3.50;;;1.90;99.90;;;;;;5050855;28;22194;-72
2022/02/27 00:26:51;;;;;;;8.00;3.50;;;1.80;99.90;;;;;;5033388;28;20174;-72
2022/02/27 00:29:17;;;;;;;5.50;3.53;;;1.90;99.90;;;;;;5028457;28;20239;-70
2022/02/27 00:31:43;;;;;;;4.90;3.50;;;1.40;99.90;;;;;;5063483;28;20209;-70
2022/02/27 00:34:09;;;;;;;7.40;4.00;;;2.10;99.90;;;;;;5036855;28;20173;-70
2022/02/27 00:36:34;;;;;;;7.20;3.30;;;2.00;99.90;;;;;;5071279;28;20311;-72
2022/02/27 00:39:00;;;;;;;6.30;3.90;;;1.90;99.90;;;;;;5053226;28;20178;-70
2022/02/27 00:41:26;;;;;;;7.00;3.30;;;1.40;99.90;;;;;;5031025;28;20463;-71
2022/02/27 00:43:52;;;;;;;7.47;3.23;;;1.90;99.90;;;;;;5045839;28;20447;-70
2022/02/27 00:46:17;;;;;;;9.37;4.10;;;1.60;99.90;;;;;;5051046;28;20189;-70
2022/02/27 00:48:45;;;;;;;4.10;2.90;;;1.10;99.90;;;;;;5031483;28;20647;-70
2022/02/27 00:51:10;;;;;;;4.90;3.08;;;1.60;99.90;;;;;;5050493;28;20300;-69
2022/02/27 00:53:36;;;;;;;5.90;3.33;;;1.70;99.90;;;;;;5057076;28;20737;-69
2022/02/27 00:56:02;;;;;;;5.30;2.93;;;1.50;99.90;;;;;;5029831;28;20202;-70
2022/02/27 00:58:27;;;;;;;4.60;3.60;;;1.50;99.90;;;;;;5049919;28;20185;-70
2022/02/27 01:00:53;;;;;;;6.63;3.33;;;1.50;99.90;;;;;;5052440;28;20444;-70
2022/02/27 01:03:19;;;;;;;7.67;3.83;;;1.40;99.90;;;;;;5032201;28;20516;-70
2022/02/27 01:05:44;;;;;;;8.00;4.13;;;1.10;99.90;;;;;;5046738;28;20186;-70
2022/02/27 01:08:10;;;;;;;3.90;3.03;;;1.40;99.90;;;;;;5040007;28;20193;-71
2022/02/27 01:10:35;;;;;;;6.50;4.00;;;1.50;99.90;;;;;;5050961;28;20236;-71
2022/02/27 01:13:01;;;;;;;7.67;3.90;;;1.30;99.90;;;;;;5049469;28;20225;-71
2022/02/27 01:15:27;;;;;;;4.77;2.90;;;1.00;99.90;;;;;;5044858;28;20173;-72
2022/02/27 01:17:52;;;;;;;9.93;3.90;;;1.60;99.90;;;;;;5048316;28;20300;-71
2022/02/27 01:20:18;;;;;;;6.63;3.20;;;1.60;99.90;;;;;;5031658;28;20190;-71
2022/02/27 01:22:44;;;;;;;12.03;3.63;;;1.50;99.90;;;;;;5050779;28;20259;-72
2022/02/27 01:25:10;;;;;;;10.07;3.90;;;1.60;99.90;;;;;;5025059;28;20178;-71
2022/02/27 01:27:36;;;;;;;4.18;3.30;;;1.40;99.90;;;;;;5029324;28;20217;-72
2022/02/27 01:30:05;;;;;;;4.85;3.25;;;1.30;99.90;;;;;;5029889;28;20205;-72
2022/02/27 01:32:30;;;;;;;5.45;3.30;;;1.30;99.90;;;;;;5032420;28;20212;-71
2022/02/27 01:34:56;;;;;;;8.73;4.40;;;1.80;99.90;;;;;;5029177;28;20284;-72
2022/02/27 01:37:22;;;;;;;3.90;2.90;;;1.40;99.90;;;;;;5026951;28;20268;-61
2022/02/27 01:39:48;;;;;;;6.90;3.20;;;1.90;99.90;;;;;;5048621;28;20273;-60
2022/02/27 01:42:15;;;;;;;3.97;3.10;;;1.60;99.90;;;;;;5048456;28;20214;-61
2022/02/27 01:44:42;;;;;;;3.88;2.55;;;1.40;99.90;;;;;;5039886;28;20456;-60
2022/02/27 01:47:11;;;;;;;4.85;3.00;;;1.40;99.90;;;;;;5043417;28;20182;-63
2022/02/27 01:49:39;;;;;;;4.68;3.58;;;1.30;99.90;;;;;;5043430;28;20190;-67
2022/02/27 01:52:05;;;;;;;6.70;3.22;;;1.30;99.90;;;;;;5048896;28;20242;-64
2022/02/27 01:54:31;;;;;;;7.50;3.88;;;1.40;99.90;;;;;;5052069;28;20240;-65
2022/02/27 01:56:59;;;;;;;3.50;3.00;;;1.20;99.90;;;;;;5039993;28;22257;-64
2022/02/27 01:59:24;;;;;;;5.18;3.15;;;1.30;99.90;;;;;;5043664;28;20181;-61
2022/02/27 02:01:50;;;;;;;10.07;3.43;;;1.00;99.90;;;;;;5057293;28;20211;-61
2022/02/27 02:04:16;;;;;;;8.03;3.50;;;1.00;99.90;;;;;;5042903;28;20239;-61
2022/02/27 02:06:42;;;;;;;4.67;3.33;;;1.50;99.90;;;;;;5053622;28;20182;-61
2022/02/27 02:09:08;;;;;;;6.67;3.33;;;1.30;99.90;;;;;;5049479;28;20265;-61
2022/02/27 02:11:37;;;;;;;5.50;3.67;;;1.10;99.90;;;;;;5045184;28;20472;-62
2022/02/27 02:14:04;;;;;;;7.80;3.50;;;1.00;99.90;;;;;;5042987;28;20239;-63
2022/02/27 02:16:40;;;;;;;7.43;3.45;;;1.30;99.90;;;;;;5048514;28;20268;-64
2022/02/27 02:19:06;;;;;;;13.65;4.05;;;1.40;99.90;;;;;;5047938;28;20200;-63
2022/02/27 02:21:44;;;;;;;7.73;3.27;;;1.10;99.90;;;;;;5043350;28;20224;-64
2022/02/27 02:24:10;;;;;;;6.65;3.97;;;1.50;99.90;;;;;;5053737;28;20534;-62
2022/02/27 02:26:37;;;;;;;5.40;3.45;;;1.40;99.90;;;;;;5041770;28;20190;-62
2022/02/27 02:29:08;;;;;;;7.45;4.65;;;1.50;99.90;;;;;;5038846;28;20197;-64
2022/02/27 02:31:35;;;;;;;8.07;3.45;;;1.00;99.90;;;;;;5047455;28;20209;-62
2022/02/27 02:34:12;;;;;;;7.75;3.75;;;0.30;99.90;;;;;;5051136;28;20650;-62
2022/02/27 02:36:38;;;;;;;6.00;3.50;;;0.30;99.90;;;;;;5054548;28;20246;-68
2022/02/27 02:39:06;;;;;;;4.78;3.45;;;1.30;99.90;;;;;;5041454;28;20569;-62
2022/02/27 02:41:32;;;;;;;11.25;3.92;;;0.90;99.90;;;;;;5056226;28;20213;-63
2022/02/27 02:43:58;;;;;;;7.43;3.35;;;0.80;99.90;;;;;;5052246;28;20289;-64
2022/02/27 02:46:24;;;;;;;5.15;3.08;;;0.80;99.90;;;;;;5057401;28;20276;-64
2022/02/27 02:48:50;;;;;;;7.23;3.00;;;0.80;99.90;;;;;;5045637;28;20754;-62
2022/02/27 02:51:16;;;;;;;5.43;3.40;;;1.00;99.90;;;;;;5055702;28;20470;-62
2022/02/27 02:53:42;;;;;;;6.45;3.13;;;1.10;99.90;;;;;;5063744;28;20984;-62
2022/02/27 02:56:09;;;;;;;5.20;4.15;;;1.30;99.90;;;;;;5050651;28;20293;-62
2022/02/27 02:58:36;;;;;;;6.45;3.95;;;0.80;99.90;;;;;;5047093;28;20281;-63
2022/02/27 03:01:03;;;;;;;6.28;3.70;;;0.80;99.90;;;;;;5043605;28;20190;-63
2022/02/27 03:03:29;;;;;;;7.97;3.70;;;0.80;99.90;;;;;;5054079;28;20186;-64
2022/02/27 03:05:54;;;;;;;7.30;4.10;;;1.30;99.90;;;;;;5046450;28;20801;-62
2022/02/27 03:08:20;;;;;;;5.20;3.53;;;0.10;99.90;;;;;;5051280;28;20190;-62
2022/02/27 03:10:46;;;;;;;8.87;3.70;;;0.20;99.90;;;;;;5061546;28;20677;-62
2022/02/27 03:13:12;;;;;;;4.63;3.10;;;0.20;99.90;;;;;;5055050;28;20202;-62
2022/02/27 03:15:38;;;;;;;8.50;3.53;;;0.70;99.90;;;;;;5048052;28;20189;-63
2022/02/27 03:18:04;;;;;;;5.00;3.17;;;1.10;99.90;;;;;;5042316;28;20223;-63
2022/02/27 03:20:29;;;;;;;7.43;4.10;;;1.10;99.90;;;;;;5046345;28;20527;-62
2022/02/27 03:22:55;;;;;;;6.27;3.73;;;0.80;99.90;;;;;;5050835;28;20209;-63
2022/02/27 03:25:22;;;;;;;10.63;4.70;;;0.70;99.90;;;;;;5055553;28;20193;-62
2022/02/27 03:27:48;;;;;;;5.25;3.35;;;0.80;99.90;;;;;;5051833;28;20186;-63
2022/02/27 03:30:15;;;;;;;5.10;3.38;;;0.70;99.90;;;;;;5045242;28;20678;-62
2022/02/27 03:32:46;;;;;;;4.00;3.60;;;0.70;99.90;;;;;;5038092;28;20221;-62
2022/02/27 03:35:13;;;;;;;6.68;3.90;;;0.40;99.90;;;;;;5049287;28;20188;-62
2022/02/27 03:37:38;;;;;;;8.10;4.00;;;0.70;99.90;;;;;;5048010;28;20239;-62
2022/02/27 03:40:05;;;;;;;3.60;3.10;;;0.10;99.90;;;;;;5051727;28;20657;-62
2022/02/27 03:42:30;;;;;;;5.70;3.53;;;0.70;99.90;;;;;;5056281;28;20208;-63
2022/02/27 03:44:56;;;;;;;8.77;3.50;;;0.50;99.90;;;;;;5055058;28;20189;-62
2022/02/27 03:47:21;;;;;;;10.40;4.20;;;0.60;99.90;;;;;;5050716;28;20650;-63
2022/02/27 03:49:47;;;;;;;7.10;3.67;;;0.60;99.90;;;;;;5049535;28;20177;-62
2022/02/27 03:52:13;;;;;;;5.47;3.57;;;0.70;99.90;;;;;;5052327;28;20205;-62
2022/02/27 03:54:38;;;;;;;7.47;4.20;;;0.60;99.90;;;;;;5048894;28;20195;-62
2022/02/27 03:57:04;;;;;;;5.33;3.07;;;0.70;99.90;;;;;;5047274;28;20193;-64
2022/02/27 03:59:30;;;;;;;9.57;4.20;;;0.70;99.90;;;;;;5052171;28;20177;-62
2022/02/27 04:01:55;;;;;;;8.43;3.53;;;0.50;99.90;;;;;;5046567;28;20198;-62
2022/02/27 04:04:21;;;;;;;4.87;3.37;;;0.60;99.90;;;;;;5046027;28;20267;-63
2022/02/27 04:06:46;;;;;;;4.53;3.10;;;0.80;99.90;;;;;;5058300;28;20185;-63
2022/02/27 04:09:12;;;;;;;6.77;3.60;;;0.50;99.90;;;;;;5029521;28;20193;-64
2022/02/27 04:11:38;;;;;;;9.97;3.60;;;0.50;99.90;;;;;;5050270;28;20221;-65
2022/02/27 04:14:04;;;;;;;8.73;4.50;;;0.10;99.90;;;;;;5045700;28;20170;-64
2022/02/27 04:16:29;;;;;;;5.83;3.33;;;0.70;99.90;;;;;;5051775;28;20181;-64
2022/02/27 04:18:55;;;;;;;11.90;3.50;;;0.70;99.90;;;;;;5038434;28;20350;-65
2022/02/27 04:21:21;;;;;;;9.50;3.80;;;0.10;99.90;;;;;;5041874;28;20735;-64
2022/02/27 04:23:47;;;;;;;5.40;3.92;;;0.40;99.90;;;;;;5055743;28;20196;-63
2022/02/27 04:26:12;;;;;;;5.20;3.60;;;0.30;99.90;;;;;;5045758;28;20201;-63
2022/02/27 04:28:38;;;;;;;6.23;3.40;;;0.40;99.90;;;;;;5047609;28;20212;-64
2022/02/27 04:31:04;;;;;;;5.63;3.77;;;-0.10;99.90;;;;;;5050947;28;20213;-64
2022/02/27 04:33:29;;;;;;;10.23;4.20;;;0.50;99.90;;;;;;5052540;28;20189;-62
2022/02/27 04:35:55;;;;;;;8.23;3.60;;;0.60;99.90;;;;;;5046392;28;20440;-63
2022/02/27 04:38:21;;;;;;;10.33;4.30;;;0.30;99.90;;;;;;5044341;28;20464;-63
2022/02/27 04:40:47;;;;;;;7.50;3.87;;;0.30;99.90;;;;;;5050226;28;20188;-62
2022/02/27 04:43:12;;;;;;;7.03;4.00;;;0.10;99.90;;;;;;5051907;28;20232;-63
2022/02/27 04:45:38;;;;;;;6.50;4.30;;;0.20;99.90;;;;;;5050997;28;20620;-62
2022/02/27 04:48:04;;;;;;;7.73;4.03;;;0.30;99.90;;;;;;5045718;28;20186;-62
2022/02/27 04:50:30;;;;;;;5.47;4.00;;;0.30;99.90;;;;;;5054760;28;20565;-62
2022/02/27 04:52:55;;;;;;;4.30;3.40;;;0.90;99.90;;;;;;5052161;28;20991;-62
2022/02/27 04:55:21;;;;;;;4.90;3.40;;;0.40;99.90;;;;;;5052970;28;20186;-66
2022/02/27 04:57:47;;;;;;;8.50;3.60;;;0.00;99.90;;;;;;5051643;28;20912;-63
2022/02/27 05:00:14;;;;;;;9.63;4.27;;;0.20;99.90;;;;;;5041751;28;20474;-64
2022/02/27 05:02:39;;;;;;;5.35;4.20;;;0.30;99.90;;;;;;5053127;28;20206;-63
2022/02/27 05:05:06;;;;;;;7.87;3.87;;;0.30;99.90;;;;;;5045655;28;20182;-63
2022/02/27 05:07:31;;;;;;;7.95;4.28;;;0.20;99.90;;;;;;5050496;28;20444;-62
2022/02/27 05:09:57;;;;;;;4.83;3.53;;;0.50;99.90;;;;;;5035334;28;20254;-64
2022/02/27 05:12:23;;;;;;;10.47;3.80;;;0.30;99.90;;;;;;5033334;28;20233;-64
2022/02/27 05:14:48;;;;;;;8.17;3.80;;;0.20;99.90;;;;;;5030891;28;20243;-65
2022/02/27 05:17:14;;;;;;;8.50;4.00;;;0.50;99.90;;;;;;5048230;28;20181;-64
2022/02/27 05:19:39;;;;;;;8.10;3.90;;;0.40;99.90;;;;;;5044458;28;20183;-62
2022/02/27 05:22:05;;;;;;;9.90;3.90;;;-0.10;99.90;;;;;;5029091;28;20220;-63
2022/02/27 05:24:31;;;;;;;7.00;4.40;;;0.50;99.90;;;;;;5052597;28;20198;-62
2022/02/27 05:26:56;;;;;;;7.90;4.63;;;0.30;99.90;;;;;;5032371;28;20177;-61
2022/02/27 05:29:22;;;;;;;6.83;4.50;;;0.20;99.90;;;;;;5041446;28;20243;-62
2022/02/27 05:31:47;;;;;;;8.10;3.77;;;0.20;99.90;;;;;;5049420;28;20243;-64
2022/02/27 05:34:13;;;;;;;8.57;4.40;;;0.30;99.90;;;;;;5039385;28;20174;-62
2022/02/27 05:36:39;;;;;;;7.60;4.10;;;0.20;99.90;;;;;;5047197;28;20694;-61
2022/02/27 05:39:05;;;;;;;6.50;3.60;;;0.20;99.90;;;;;;5052524;28;20185;-64
2022/02/27 05:41:31;;;;;;;5.80;3.90;;;0.30;99.90;;;;;;5048716;28;20462;-62
2022/02/27 05:43:58;;;;;;;3.70;3.33;;;0.20;99.90;;;;;;5043352;28;20193;-62
2022/02/27 05:46:24;;;;;;;8.02;4.47;;;0.20;99.90;;;;;;5049235;28;20196;-66
2022/02/27 05:48:50;;;;;;;6.35;3.83;;;0.60;99.90;;;;;;5041802;28;20606;-65
2022/02/27 05:51:16;;;;;;;13.88;4.53;;;0.10;99.90;;;;;;5056079;28;20583;-62
2022/02/27 05:53:41;;;;;;;7.18;4.85;;;0.30;99.90;;;;;;5049056;28;20178;-63
2022/02/27 05:56:07;;;;;;;7.10;3.93;;;0.20;99.90;;;;;;5053149;28;20227;-62
2022/02/27 05:58:34;;;;;;;9.33;4.40;;;-0.40;99.90;;;;;;5052575;28;20209;-64
2022/02/27 06:01:00;;;;;;;5.05;3.72;;;0.00;99.90;;;;;;5054115;28;20810;-63
2022/02/27 06:03:26;;;;;;;5.82;4.10;;;0.00;99.90;;;;;;5039828;28;20185;-62
2022/02/27 06:05:52;;;;;;;8.00;4.43;;;0.20;99.90;;;;;;5037382;28;20271;-62
2022/02/27 06:08:18;;;;;;;7.40;4.43;;;0.10;99.90;;;;;;5050720;28;20444;-63
2022/02/27 06:10:44;;;;;;;7.67;4.40;;;-0.50;99.90;;;;;;5050837;28;20205;-62
2022/02/27 06:13:09;;;;;;;6.87;3.93;;;-0.60;99.90;;;;;;5054366;28;20205;-62
2022/02/27 06:15:35;;;;;;;5.87;3.83;;;-0.40;99.90;;;;;;5041537;28;20243;-64
2022/02/27 06:18:01;;;;;;;7.20;4.00;;;0.30;99.90;;;;;;5046253;28;20177;-65
2022/02/27 06:20:26;;;;;;;7.73;4.37;;;0.20;99.90;;;;;;5054965;28;20766;-63
2022/02/27 06:22:52;;;;;;;9.33;4.70;;;0.20;99.90;;;;;;5052062;28;20235;-62
2022/02/27 06:25:19;;;;;;;8.90;4.33;;;0.10;99.90;;;;;;5052680;28;21022;-62
2022/02/27 06:27:46;;;;;;;9.95;4.45;;;0.20;99.90;;;;;;5053701;28;20186;-62
2022/02/27 06:30:20;;;;;;;10.63;4.05;;;0.10;99.90;;;;;;5047110;28;20211;-63
2022/02/27 06:32:49;;;;;;;7.43;4.20;;;0.10;99.90;;;;;;5053628;28;20204;-62
2022/02/27 06:35:16;;;;;;;5.70;4.20;;;0.20;99.90;;;;;;5044981;28;20178;-63
2022/02/27 06:37:42;;;;;;;7.30;3.75;;;0.10;99.90;;;;;;5053802;28;20341;-63
2022/02/27 06:40:09;;;;;;;9.93;4.10;;;0.30;99.90;;;;;;5049895;28;20272;-64
2022/02/27 06:42:36;;;;;;;6.35;4.00;;;0.40;99.90;;;;;;5052802;28;20586;-62
2022/02/27 06:45:02;;;;;;;7.15;4.78;;;0.40;99.90;;;;;;5048457;28;20186;-62
2022/02/27 06:47:27;;;;;;;7.97;4.80;;;0.50;99.90;;;;;;5047163;28;20240;-63
2022/02/27 06:49:53;;;;;;;10.43;5.07;;;0.30;99.90;;;;;;5041735;28;20193;-63
2022/02/27 06:52:18;;;;;;;10.53;4.93;;;0.30;99.90;;;;;;5052990;28;20198;-64
2022/02/27 06:54:44;;;;;;;8.40;4.03;;;0.60;99.90;;;;;;5054827;28;20182;-64
2022/02/27 06:57:10;;;;;;;10.70;5.83;;;0.40;99.90;;;;;;5049754;28;20200;-66
2022/02/27 06:59:35;;;;;;;5.70;4.47;;;0.30;99.90;;;;;;5050096;28;20201;-64
2022/02/27 07:02:01;;;;;;;8.63;4.70;;;0.20;99.90;;;;;;5053478;28;20295;-64
2022/02/27 07:04:27;;;;;;;6.80;5.23;;;0.50;99.90;;;;;;5047093;28;20189;-69
2022/02/27 07:06:52;;;;;;;11.47;5.70;;;-0.10;99.90;;;;;;5051647;28;20189;-65
2022/02/27 07:09:20;;;;;;;8.93;4.57;;;0.20;99.90;;;;;;5054449;28;20190;-65
2022/02/27 07:11:46;;;;;;;7.20;4.38;;;0.50;99.90;;;;;;5033405;28;20227;-66
2022/02/27 07:14:11;;;;;;;7.47;5.13;;;0.40;99.90;;;;;;5050172;28;20189;-66
2022/02/27 07:16:38;;;;;;;10.10;5.70;;;0.50;99.90;;;;;;5054387;28;20181;-64
2022/02/27 07:19:04;;;;;;;11.77;6.90;;;0.80;99.90;;;;;;5050223;28;20228;-64
2022/02/27 07:21:30;;;;;;;7.28;4.63;;;0.90;99.90;;;;;;5051086;28;20240;-64
2022/02/27 07:23:56;;;;;;;8.30;4.90;;;0.60;99.90;;;;;;5053756;28;20384;-66
2022/02/27 07:26:22;;;;;;;7.18;5.45;;;0.60;99.90;;;;;;5053057;28;20292;-65
2022/02/27 07:28:48;;;;;;;10.40;5.67;;;0.20;99.90;;;;;;5062303;28;20272;-63
2022/02/27 07:31:14;;;;;;;8.40;5.93;;;0.70;99.90;;;;;;5052508;28;20475;-64
2022/02/27 07:33:39;;;;;;;10.17;5.10;;;0.60;99.90;;;;;;5055055;28;20235;-65
2022/02/27 07:36:05;;;;;;;7.43;5.67;;;0.30;99.90;;;;;;5029993;28;20193;-65
2022/02/27 07:38:31;;;;;;;13.73;7.87;;;0.90;99.90;;;;;;5046961;28;20186;-64
2022/02/27 07:40:56;;;;;;;7.67;5.50;;;1.20;99.90;;;;;;5056866;28;20225;-61
2022/02/27 07:43:22;;;;;;;7.67;6.03;;;0.90;99.90;;;;;;5052754;28;20194;-66
2022/02/27 07:45:49;;;;;;;7.43;5.63;;;0.40;99.90;;;;;;5052583;28;20212;-66
2022/02/27 07:48:15;;;;;;;10.38;5.60;;;1.30;99.90;;;;;;5051456;28;20209;-66
2022/02/27 07:50:41;;;;;;;8.10;5.13;;;1.80;99.90;;;;;;5044647;28;20209;-66
2022/02/27 07:53:07;;;;;;;8.35;5.80;;;1.50;99.90;;;;;;5033905;28;20208;-61
2022/02/27 07:55:32;;;;;;;7.07;5.80;;;1.40;99.90;;;;;;5044252;28;20190;-63
2022/02/27 07:57:59;;;;;;;8.70;6.33;;;1.70;99.90;;;;;;5048315;28;20435;-63
2022/02/27 08:00:25;;;;;;;13.45;6.88;;;2.00;99.90;;;;;;5050515;28;20190;-66
2022/02/27 08:02:51;;;;;;;8.57;5.90;;;2.00;99.90;;;;;;5059581;28;20271;-66
2022/02/27 08:05:17;;;;;;;11.27;5.67;;;1.70;99.90;;;;;;5047641;28;20255;-64
2022/02/27 08:07:43;;;;;;;9.20;6.38;;;2.20;99.90;;;;;;5045764;28;20286;-64
2022/02/27 08:10:10;;;;;;;8.50;6.30;;;2.40;99.90;;;;;;5049547;28;20219;-66
2022/02/27 08:12:43;;;;;;;12.27;6.63;;;2.40;99.90;;;;;;5043923;28;20467;-67
2022/02/27 08:15:10;;;;;;;8.68;6.05;;;2.70;99.90;;;;;;5039538;28;20512;-66
2022/02/27 08:17:36;;;;;;;9.55;6.82;;;2.80;99.90;;;;;;5035150;28;20706;-67
2022/02/27 08:20:04;;;;;;;9.75;6.40;;;2.90;99.90;;;;;;5046881;28;20271;-67
2022/02/27 08:22:29;;;;;;;7.57;6.40;;;3.20;99.90;;;;;;5027459;28;20198;-67
2022/02/27 08:24:55;;;;;;;9.80;5.40;;;3.20;99.90;;;;;;5056075;28;20182;-67
2022/02/27 08:27:21;;;;;;;10.98;7.07;;;3.30;99.90;;;;;;5046191;28;20259;-68
2022/02/27 08:29:49;;;;;;;8.73;6.13;;;3.70;99.90;;;;;;5048925;28;20173;-66
2022/02/27 08:32:15;;;;;;;7.78;6.00;;;3.60;99.90;;;;;;5047520;28;20604;-67
2022/02/27 08:34:41;;;;;;;6.28;5.45;;;3.70;99.90;;;;;;5048564;28;20188;-67
2022/02/27 08:37:07;;;;;;;8.85;5.63;;;3.90;99.90;;;;;;5044214;28;20343;-67
2022/02/27 08:39:34;;;;;;;7.63;5.30;;;4.20;99.90;;;;;;5032436;28;20186;-67
2022/02/27 08:42:01;;;;;;;7.95;4.95;;;4.80;99.90;;;;;;5047533;28;20461;-66
2022/02/27 08:44:28;;;;;;;8.57;5.95;;;4.80;99.90;;;;;;5047223;28;20264;-61
2022/02/27 08:46:54;;;;;;;8.43;5.32;;;4.90;99.90;;;;;;5047174;28;20664;-62
2022/02/27 08:49:20;;;;;;;7.25;5.00;;;5.00;99.90;;;;;;5039804;28;20196;-60
2022/02/27 08:51:47;;;;;;;6.20;5.57;;;5.10;99.90;;;;;;5039425;28;20279;-62
2022/02/27 08:54:13;;;;;;;8.68;4.90;;;5.00;98.90;;;;;;5041230;28;20188;-62
2022/02/27 08:56:38;;;;;;;8.35;5.25;;;5.40;98.90;;;;;;5048274;28;20529;-64
2022/02/27 08:59:04;;;;;;;6.27;4.80;;;6.80;97.80;;;;;;5050675;28;20195;-66
2022/02/27 09:01:29;;;;;;;5.93;4.67;;;8.00;94.30;;;;;;5031510;28;20263;-62
2022/02/27 09:03:55;;;;;;;5.03;4.13;;;9.00;90.90;;;;;;5044293;28;20698;-63
2022/02/27 09:06:20;;;;;;;4.93;4.43;;;9.60;87.60;;;;;;5028498;28;20705;-66
2022/02/27 09:08:46;;;;;;;4.33;3.93;;;10.40;83.20;;;;;;5047370;28;20710;-67
2022/02/27 09:11:12;;;;;;;9.50;4.93;;;10.80;79.50;;;;;;5043882;28;20212;-64
2022/02/27 09:13:37;;;;;;;5.50;4.20;;;11.60;78.50;;;;;;5021871;28;20182;-67
2022/02/27 09:16:03;;;;;;;4.00;3.60;;;12.50;75.60;;;;;;5028400;28;20181;-63
2022/02/27 09:18:29;;;;;;;5.20;4.60;;;12.30;69.20;;;;;;5046920;28;22725;-62
2022/02/27 09:20:54;;;;;;;5.47;4.43;;;12.20;71.50;;;;;;5042453;28;20208;-61
2022/02/27 09:23:20;;;;;;;5.63;5.00;;;11.40;71.60;;;;;;5045329;28;20278;-60
2022/02/27 09:25:46;;;;;;;4.70;4.10;;;10.80;74.00;;;;;;5047665;28;20905;-63
2022/02/27 09:28:11;;;;;;;4.73;4.30;;;10.10;74.80;;;;;;5038235;28;20190;-62
2022/02/27 09:30:37;;;;;;;6.50;4.97;;;9.90;78.70;;;;;;5053368;28;20225;-63
2022/02/27 09:33:02;;;;;;;4.67;4.27;;;10.00;77.80;;;;;;5050087;28;20694;-62
2022/02/27 09:35:28;;;;;;;7.30;5.10;;;10.20;77.60;;;;;;5047018;28;20187;-62
2022/02/27 09:37:56;;;;;;;5.80;4.77;;;10.30;76.00;;;;;;5052168;28;20739;-62
2022/02/27 09:40:22;;;;;;;4.80;4.10;;;10.80;74.70;;;;;;5056643;28;20209;-61
2022/02/27 09:42:49;;;;;;;6.50;4.60;;;11.60;75.30;;;;;;5039661;28;20286;-62
2022/02/27 09:45:15;;;;;;;5.68;4.40;;;12.50;70.80;;;;;;5042968;28;20456;-61
2022/02/27 09:47:41;;;;;;;5.65;4.05;;;12.30;67.40;;;;;;5043959;28;20177;-61
2022/02/27 09:50:08;;;;;;;6.57;3.90;;;12.50;67.00;;;;;;5038784;28;20699;-62
2022/02/27 09:52:33;;;;;;;6.53;3.80;;;12.20;65.90;;;;;;5039561;28;20613;-61
2022/02/27 09:54:59;;;;;;;6.90;3.80;;;12.90;65.00;;;;;;5052775;28;20268;-61
2022/02/27 09:57:24;;;;;;;4.20;3.73;;;13.00;63.70;;;;;;5051348;28;20185;-63
2022/02/27 09:59:50;;;;;;;4.47;4.07;;;13.60;63.40;;;;;;5051291;28;20256;-61
2022/02/27 10:02:16;;;;;;;5.23;3.90;;;13.70;61.90;;;;;;5044944;28;20196;-61
2022/02/27 10:04:43;;;;;;;4.10;3.80;;;14.10;60.30;;;;;;5044844;28;20482;-62
2022/02/27 10:07:09;;;;;;;5.05;3.95;;;14.10;57.80;;;;;;5026091;28;20182;-61
2022/02/27 10:09:35;;;;;;;4.03;3.67;;;12.60;58.20;;;;;;5055379;28;20722;-61
2022/02/27 10:12:20;;;;;;;6.72;4.05;;;12.50;58.90;;;;;;5047999;28;20669;-62
2022/02/27 10:15:01;;;;;;;6.43;3.80;;;13.10;57.80;;;;;;5054420;28;20181;-60
2022/02/27 10:17:36;;;;;;;4.35;3.42;;;13.80;56.80;;;;;;5050208;28;20182;-61
2022/02/27 10:20:25;;;;;;;4.13;3.38;;;14.40;56.70;;;;;;5048711;28;20187;-61
2022/02/27 10:22:53;;;;;;;4.45;3.65;;;14.00;56.30;;;;;;5044921;28;20295;-61
2022/02/27 10:25:27;;;;;;;3.70;3.40;;;13.60;57.40;;;;;;5051723;28;20177;-62
2022/02/27 10:27:54;;;;;;;3.22;2.88;;;14.10;55.30;;;;;;5043043;28;20196;-61
2022/02/27 10:30:21;;;;;;;4.22;3.58;;;14.20;55.50;;;;;;5047200;28;20693;-61
2022/02/27 10:32:48;;;;;;;6.25;4.47;;;13.60;56.00;;;;;;5041150;28;20205;-61
2022/02/27 10:35:34;;;;;;;4.50;3.70;;;14.10;55.60;;;;;;5041650;28;20170;-61
2022/02/27 10:38:00;;;;;;;4.95;4.05;;;12.70;56.70;;;;;;5047762;28;20186;-63
2022/02/27 10:40:34;;;;;;;3.67;3.38;;;12.10;58.90;;;;;;5050098;28;20330;-63
2022/02/27 10:43:04;;;;;;;4.25;3.85;;;11.90;59.60;;;;;;5040629;28;20200;-62
2022/02/27 10:45:29;;;;;;;4.28;3.70;;;12.20;59.20;;;;;;5041693;28;20227;-61
2022/02/27 10:48:16;;;;;;;3.80;3.40;;;13.20;57.40;;;;;;5045979;28;20189;-62
2022/02/27 10:50:45;;;;;;;4.50;3.50;;;12.90;56.80;;;;;;5039989;28;20205;-63
2022/02/27 10:53:14;;;;;;;4.97;3.20;;;13.40;54.50;;;;;;5044957;28;20316;-62
2022/02/27 10:55:40;;;;;;;4.05;3.58;;;14.00;54.50;;;;;;5053474;28;20181;-62
2022/02/27 10:58:05;;;;;;;4.00;3.60;;;13.40;53.10;;;;;;5042247;28;20181;-62
2022/02/27 11:00:36;;;;;;;3.27;2.80;;;12.40;54.00;;;;;;5049793;28;20185;-61
2022/02/27 11:03:04;;;;;;;4.30;3.13;;;12.90;54.70;;;;;;5027550;28;20277;-62
2022/02/27 11:05:35;;;;;;;2.78;2.58;;;13.10;55.00;;;;;;5040324;28;20715;-63
2022/02/27 11:08:03;;;;;;;2.80;2.60;;;12.90;52.50;;;;;;5043114;28;20185;-62
2022/02/27 11:10:32;;;;;;;3.70;3.22;;;13.40;52.80;;;;;;5049476;28;20215;-63
2022/02/27 11:13:00;;;;;;;4.82;3.45;;;13.40;51.70;;;;;;5031364;28;20208;-63
2022/02/27 11:15:25;;;;;;;4.00;3.30;;;14.30;51.20;;;;;;5048558;28;20642;-62
2022/02/27 11:17:51;;;;;;;6.33;3.33;;;13.90;49.70;;;;;;5050260;28;20193;-62
2022/02/27 11:20:20;;;;;;;2.70;2.50;;;13.90;49.90;;;;;;5052435;28;20459;-62
2022/02/27 11:22:47;;;;;;;5.30;3.25;;;14.50;49.60;;;;;;5048948;28;20220;-62
2022/02/27 11:25:14;;;;;;;3.00;2.75;;;14.60;48.10;;;;;;5056362;28;20190;-62
2022/02/27 11:27:47;;;;;;;3.30;3.00;;;14.20;48.00;;;;;;5051470;28;20914;-62
2022/02/27 11:30:16;;;;;;;4.15;3.50;;;13.50;49.20;;;;;;5047167;28;20224;-62
2022/02/27 11:32:50;;;;;;;3.13;2.92;;;13.50;49.60;;;;;;5046021;28;20210;-62
2022/02/27 11:35:51;;;;;;;3.80;2.85;;;14.20;48.80;;;;;;5044212;28;20231;-61
2022/02/27 11:38:17;;;;;;;3.00;2.80;;;13.70;47.60;;;;;;4966295;28;20198;-62
2022/02/27 11:40:57;;;;;;;3.60;2.63;;;13.60;48.00;;;;;;5031287;28;20197;-62
2022/02/27 11:43:41;;;;;;;4.65;3.00;;;12.30;49.30;;;;;;5055023;28;20189;-62
2022/02/27 11:46:09;;;;;;;2.97;2.63;;;12.20;50.50;;;;;;5052338;28;20186;-61
2022/02/27 11:48:58;;;;;;;3.60;2.70;;;12.40;49.90;;;;;;5031639;28;20208;-60
2022/02/27 11:51:38;;;;;;;2.90;2.60;;;13.00;50.10;;;;;;5045030;28;20662;-60
2022/02/27 11:54:11;;;;;;;3.25;2.60;;;13.20;48.80;;;;;;5047590;28;20557;-61
2022/02/27 11:56:38;;;;;;;3.50;2.97;;;13.70;48.70;;;;;;5049163;28;20192;-61
2022/02/27 11:59:09;;;;;;;2.85;2.55;;;13.50;49.50;;;;;;5048187;28;20183;-60
2022/02/27 12:01:55;;;;;;;3.70;3.40;;;13.00;49.30;;;;;;5048687;28;20553;-63
2022/02/27 12:04:24;;;;;;;6.53;3.40;;;13.00;49.60;;;;;;5038010;28;20193;-61
2022/02/27 12:07:07;;;;;;;4.30;2.90;;;12.60;49.70;;;;;;5042260;28;20185;-61
2022/02/27 12:09:48;;;;;;;5.38;2.90;;;12.60;50.30;;;;;;5049222;28;20564;-62
2022/02/27 12:12:43;;;;;;;3.80;3.40;;;12.20;51.60;;;;;;5053827;28;20213;-64
2022/02/27 12:15:21;;;;;;;4.47;2.95;;;11.70;52.00;;;;;;5023474;28;20539;-64
2022/02/27 12:18:04;;;;;;;4.25;3.42;;;10.90;53.30;;;;;;5050219;28;20244;-64
2022/02/27 12:20:41;;;;;;;4.85;4.13;;;10.90;53.50;;;;;;5033870;28;20250;-65
2022/02/27 12:23:11;;;;;;;3.75;3.22;;;10.50;54.30;;;;;;5047389;28;20259;-65
2022/02/27 12:25:39;;;;;;;4.20;3.55;;;10.90;55.00;;;;;;5036677;28;20246;-65
2022/02/27 12:28:05;;;;;;;3.80;3.50;;;11.10;55.40;;;;;;5051080;28;20199;-65
2022/02/27 12:30:32;;;;;;;4.97;3.67;;;10.70;55.30;;;;;;5044034;28;20656;-65
2022/02/27 12:33:06;;;;;;;4.63;4.05;;;10.70;55.60;;;;;;5046626;28;20691;-64
2022/02/27 12:35:37;;;;;;;4.22;3.60;;;10.70;55.80;;;;;;5037938;28;20187;-65
2022/02/27 12:38:04;;;;;;;4.22;3.83;;;10.60;56.50;;;;;;5046330;28;20880;-65
2022/02/27 12:40:32;;;;;;;3.97;3.65;;;10.60;56.70;;;;;;5040969;28;20186;-65
2022/02/27 12:43:02;;;;;;;4.20;3.85;;;10.70;56.10;;;;;;5050168;28;20346;-65
2022/02/27 12:45:33;;;;;;;4.25;3.28;;;10.50;55.40;;;;;;5036148;28;20204;-65
2022/02/27 12:48:15;;;;;;;4.47;3.35;;;10.20;54.80;;;;;;5048429;28;20189;-65
2022/02/27 12:50:47;;;;;;;3.97;3.40;;;10.20;55.50;;;;;;5029916;28;20217;-65
2022/02/27 12:53:13;;;;;;;3.38;3.08;;;9.80;56.60;;;;;;5045923;28;20260;-65